createdAt,value
2023-08-05T00:04:57.226Z,0
2023-08-05T00:09:57.391Z,0
2023-08-05T00:14:57.110Z,0
2023-08-05T00:19:57.769Z,0
2023-08-05T00:24:57.402Z,0
2023-08-05T00:29:57.057Z,0
2023-08-05T00:34:57.165Z,0
2023-08-05T00:39:57.708Z,0
2023-08-05T00:44:57.298Z,0
2023-08-05T00:49:57.171Z,0
2023-08-05T00:54:57.143Z,0
2023-08-05T00:59:57.189Z,0
2023-08-05T01:04:57.138Z,0
2023-08-05T01:09:57.135Z,0
2023-08-05T01:14:56.977Z,0
2023-08-05T01:19:57.109Z,0
2023-08-05T01:24:56.964Z,0
2023-08-05T01:29:57.271Z,0
2023-08-05T01:34:57.542Z,0
2023-08-05T01:39:56.874Z,0
2023-08-05T01:44:57.015Z,0
2023-08-05T01:49:57.103Z,0
2023-08-05T01:54:57.272Z,0
2023-08-05T01:59:57.287Z,0
2023-08-05T02:04:57.130Z,0
2023-08-05T02:09:57.049Z,0
2023-08-05T02:14:57.150Z,0
2023-08-05T02:19:57.463Z,0
2023-08-05T02:24:57.244Z,0
2023-08-05T02:29:57.099Z,0
2023-08-05T02:34:57.320Z,0
2023-08-05T02:39:57.167Z,0
2023-08-05T02:44:57.044Z,0
2023-08-05T02:49:57.257Z,0
2023-08-05T02:54:57.117Z,0
2023-08-05T02:59:57.467Z,0
2023-08-05T03:04:57.056Z,0
2023-08-05T03:09:57.175Z,0
2023-08-05T03:14:56.877Z,0
2023-08-05T03:19:57.126Z,0
2023-08-05T03:24:57.158Z,0
2023-08-05T03:29:57.220Z,0
2023-08-05T03:34:56.710Z,0
2023-08-05T03:39:57.169Z,0
2023-08-05T03:44:57.023Z,0
2023-08-05T03:49:57.118Z,0
2023-08-05T03:54:56.963Z,0
2023-08-05T03:59:57.140Z,0
2023-08-05T04:04:57.116Z,0
2023-08-05T04:09:57.330Z,0
2023-08-05T04:14:56.836Z,0
2023-08-05T04:19:57.088Z,0
2023-08-05T04:24:56.957Z,0
2023-08-05T04:29:56.747Z,0
2023-08-05T04:34:57.076Z,0.3
2023-08-05T04:39:57.180Z,0.6
2023-08-05T04:44:57.490Z,0.7
2023-08-05T04:49:56.902Z,1.3
2023-08-05T04:54:56.829Z,1.6
2023-08-05T04:59:56.970Z,2
2023-08-05T05:04:56.937Z,2.4
2023-08-05T05:09:56.786Z,2.8
2023-08-05T05:14:57.078Z,3.1
2023-08-05T05:19:56.998Z,3.7
2023-08-05T05:24:57.240Z,4.4
2023-08-05T05:29:57.040Z,5.1
2023-08-05T05:34:56.846Z,5.6
2023-08-05T05:39:57.120Z,6.3
2023-08-05T05:44:56.731Z,7
2023-08-05T05:49:56.917Z,8.1
2023-08-05T05:54:56.975Z,9.2
2023-08-05T05:59:57.126Z,10.5
2023-08-05T06:04:56.972Z,12.1
2023-08-05T06:09:56.908Z,14.3
2023-08-05T06:14:57.107Z,16.7
2023-08-05T06:19:56.864Z,19.1
2023-08-05T06:24:56.651Z,21.2
2023-08-05T06:29:57.131Z,23.3
2023-08-05T06:34:56.896Z,23.6
2023-08-05T06:39:57.063Z,21.6
2023-08-05T06:44:56.939Z,17.6
2023-08-05T06:49:57.123Z,13.5
2023-08-05T06:54:57.204Z,14.3
2023-08-05T06:59:56.971Z,21.4
2023-08-05T07:04:56.626Z,27.1
2023-08-05T07:09:56.969Z,30.6
2023-08-05T07:14:57.219Z,37.6
2023-08-05T07:19:56.699Z,39.1
2023-08-05T07:24:57.028Z,38.4
2023-08-05T07:29:57.143Z,46.3
2023-08-05T07:34:57.045Z,49.3
2023-08-05T07:39:56.638Z,47.3
2023-08-05T07:44:57.008Z,46.1
2023-08-05T07:49:56.969Z,44.9
2023-08-05T07:54:56.831Z,44
2023-08-05T07:59:57.579Z,42.6
2023-08-05T08:04:56.878Z,44.1
2023-08-05T08:09:57.165Z,52.4
2023-08-05T08:14:56.759Z,53.7
2023-08-05T08:19:56.835Z,46.4
2023-08-05T08:24:56.647Z,40.9
2023-08-05T08:29:56.900Z,45.1
2023-08-05T08:34:56.753Z,48.8
2023-08-05T08:39:57.039Z,47.9
2023-08-05T08:44:59.016Z,38.9
2023-08-05T08:49:56.627Z,56.4
2023-08-05T08:54:57.079Z,58.2
2023-08-05T08:59:56.974Z,60.5
2023-08-05T09:04:56.891Z,66.6
2023-08-05T09:10:02.347Z,69.6
2023-08-05T09:14:56.585Z,72.1
2023-08-05T09:19:56.974Z,71.4
2023-08-05T09:24:59.965Z,65.5
2023-08-05T09:30:13.080Z,59.8
2023-08-05T09:34:56.915Z,66.7
2023-08-05T09:39:57.008Z,60.6
2023-08-05T09:44:57.055Z,53.4
2023-08-05T09:50:01.051Z,49.7
2023-08-05T09:54:59.421Z,45.8
2023-08-05T09:59:57.187Z,46.3
2023-08-05T10:04:57.326Z,62.5
2023-08-05T10:09:56.828Z,67.8
2023-08-05T10:14:56.578Z,67.3
2023-08-05T10:19:56.737Z,43.9
2023-08-05T10:24:58.579Z,60.3
2023-08-05T10:29:56.991Z,42.9
2023-08-05T10:35:28.164Z,38.3
2023-08-05T10:40:00.822Z,74.1
2023-08-05T10:44:58.143Z,96.4
2023-08-05T10:50:00.488Z,92.1
2023-08-05T10:54:57.265Z,81.3
2023-08-05T10:59:57.152Z,61.6
2023-08-05T11:05:04.365Z,61.1
2023-08-05T11:09:56.685Z,51.8
2023-08-05T11:14:56.790Z,47.7
2023-08-05T11:19:57.618Z,41.5
2023-08-05T11:24:56.711Z,43.5
2023-08-05T11:30:03.306Z,36.1
2023-08-05T11:35:03.997Z,27.4
2023-08-05T11:39:56.398Z,24.9
2023-08-05T11:44:56.978Z,26.4
2023-08-05T11:49:56.872Z,26.6
2023-08-05T11:54:56.365Z,14
2023-08-05T11:59:56.716Z,11
2023-08-05T12:04:58.809Z,17.4
2023-08-05T12:10:04.981Z,20.1
2023-08-05T12:15:07.067Z,19.4
2023-08-05T12:19:57.100Z,15.9
2023-08-05T12:24:57.172Z,9.8
2023-08-05T12:29:56.877Z,8.9
2023-08-05T12:34:56.705Z,8.9
2023-08-05T12:39:56.879Z,10.4
2023-08-05T12:44:56.565Z,11
2023-08-05T12:49:56.423Z,14.7
2023-08-05T12:54:56.626Z,20.4
2023-08-05T12:59:56.588Z,20.9
2023-08-05T13:04:56.694Z,20.1
2023-08-05T13:09:56.823Z,22.2
2023-08-05T13:14:56.570Z,25.9
2023-08-05T13:19:56.835Z,23.1
2023-08-05T13:24:57.247Z,17.1
2023-08-05T13:29:56.360Z,11.6
2023-08-05T13:34:56.537Z,10.6
2023-08-05T13:39:56.890Z,15.3
2023-08-05T13:44:56.639Z,25.5
2023-08-05T13:49:56.608Z,34.9
2023-08-05T13:54:56.801Z,38.7
2023-08-05T13:59:57.324Z,47.6
2023-08-05T14:04:56.307Z,51.4
2023-08-05T14:09:56.634Z,53.1
2023-08-05T14:14:56.334Z,61.1
2023-08-05T14:19:56.426Z,58.8
2023-08-05T14:24:56.245Z,42.6
2023-08-05T14:30:10.251Z,28
2023-08-05T14:35:06.044Z,18
2023-08-05T14:39:56.857Z,13.8
2023-08-05T14:44:56.418Z,13.9
2023-08-05T14:49:56.822Z,19.8
2023-08-05T14:54:56.311Z,33.9
2023-08-05T14:59:56.487Z,37.3
2023-08-05T15:04:56.302Z,35.9
2023-08-05T15:09:56.473Z,27.2
2023-08-05T15:14:56.489Z,23
2023-08-05T15:19:56.333Z,25.1
2023-08-05T15:24:56.529Z,27.3
2023-08-05T15:29:57.282Z,32.6
2023-08-05T15:34:56.470Z,29.7
2023-08-05T15:39:56.843Z,29.7
2023-08-05T15:44:56.614Z,32.8
2023-08-05T15:49:56.490Z,37
2023-08-05T15:54:56.928Z,34.7
2023-08-05T15:59:56.381Z,29.7
2023-08-05T16:04:56.527Z,26.2
2023-08-05T16:09:56.862Z,30.7
2023-08-05T16:14:56.487Z,32.5
2023-08-05T16:19:56.781Z,39.8
2023-08-05T16:24:56.532Z,51.7
2023-08-05T16:29:56.961Z,49.7
2023-08-05T16:34:56.521Z,37.9
2023-08-05T16:39:56.631Z,32.5
2023-08-05T16:44:56.390Z,31.8
2023-08-05T16:49:56.526Z,30.6
2023-08-05T16:54:56.834Z,23.8
2023-08-05T16:59:56.682Z,19
2023-08-05T17:04:56.196Z,15.7
2023-08-05T17:09:56.604Z,15.8
2023-08-05T17:14:56.535Z,10.7
2023-08-05T17:19:56.542Z,10.2
2023-08-05T17:24:56.277Z,9.3
2023-08-05T17:29:57.706Z,8.6
2023-08-05T17:34:56.665Z,8.4
2023-08-05T17:39:56.435Z,8.9
2023-08-05T17:44:56.341Z,8.6
2023-08-05T17:49:56.626Z,6.9
2023-08-05T17:54:56.536Z,4.7
2023-08-05T17:59:56.500Z,3.5
2023-08-05T18:04:56.595Z,2.3
2023-08-05T18:09:56.671Z,1.9
2023-08-05T18:14:56.449Z,1.8
2023-08-05T18:19:56.207Z,1.9
2023-08-05T18:24:56.127Z,2.5
2023-08-05T18:29:56.413Z,1.8
2023-08-05T18:34:56.218Z,1.1
2023-08-05T18:39:56.319Z,0.9
2023-08-05T18:44:56.352Z,0.8
2023-08-05T18:49:56.212Z,1.1
2023-08-05T18:54:56.510Z,0.5
2023-08-05T18:59:56.928Z,0.2
2023-08-05T19:04:56.375Z,0.1
2023-08-05T19:09:56.132Z,0
2023-08-05T19:14:56.077Z,0
2023-08-05T19:19:56.514Z,0
2023-08-05T19:24:56.353Z,0
2023-08-05T19:29:56.304Z,0
2023-08-05T19:34:56.145Z,0
2023-08-05T19:39:56.221Z,0
2023-08-05T19:44:56.348Z,0
2023-08-05T19:49:56.371Z,0
2023-08-05T19:54:56.366Z,0
2023-08-05T19:59:56.510Z,0
2023-08-05T20:04:56.143Z,0
2023-08-05T20:09:56.214Z,0
2023-08-05T20:14:56.320Z,0
2023-08-05T20:19:56.533Z,0
2023-08-05T20:24:56.279Z,0
2023-08-05T20:29:56.193Z,0
2023-08-05T20:34:56.652Z,0
2023-08-05T20:39:56.704Z,0
2023-08-05T20:44:56.253Z,0
2023-08-05T20:49:56.514Z,0
2023-08-05T20:54:56.438Z,0
2023-08-05T20:59:56.465Z,0
2023-08-05T21:04:56.276Z,0
2023-08-05T21:09:56.400Z,0
2023-08-05T21:14:56.233Z,0
2023-08-05T21:19:56.325Z,0
2023-08-05T21:24:56.534Z,0
2023-08-05T21:29:56.281Z,0
2023-08-05T21:34:56.071Z,0
2023-08-05T21:39:56.406Z,0
2023-08-05T21:44:55.991Z,0
2023-08-05T21:49:56.465Z,0
2023-08-05T21:54:56.305Z,0
2023-08-05T21:59:56.322Z,0
2023-08-05T22:04:56.263Z,0
2023-08-05T22:09:56.806Z,0
2023-08-05T22:14:56.998Z,0
2023-08-05T22:19:56.648Z,0
2023-08-05T22:24:56.414Z,0
2023-08-05T22:29:56.620Z,0
2023-08-05T22:34:56.086Z,0
2023-08-05T22:39:56.517Z,0
2023-08-05T22:44:56.116Z,0
2023-08-05T22:49:56.195Z,0
2023-08-05T22:54:56.064Z,0
2023-08-05T22:59:55.983Z,0
2023-08-05T23:04:56.174Z,0
2023-08-05T23:09:55.941Z,0
2023-08-05T23:14:56.109Z,0
2023-08-05T23:19:56.194Z,0
2023-08-05T23:24:56.071Z,0
2023-08-05T23:29:56.095Z,0
2023-08-05T23:34:56.098Z,0
2023-08-05T23:39:56.278Z,0
2023-08-05T23:44:56.343Z,0
2023-08-05T23:49:56.405Z,0
2023-08-05T23:54:56.242Z,0
2023-08-05T23:59:56.001Z,0
